createdAt,value
2022-11-29T00:00:30.946Z,101168.34
2022-11-29T00:03:39.454Z,101162.63
2022-11-29T00:07:08.834Z,101157.78
2022-11-29T00:10:38.229Z,101155.31
2022-11-29T00:13:58.145Z,101149.13
2022-11-29T00:17:36.363Z,101142.94
2022-11-29T00:21:10.023Z,101139.06
2022-11-29T00:24:36.569Z,101127.63
2022-11-29T00:28:01.352Z,101128.59
2022-11-29T00:31:22.826Z,101132.53
2022-11-29T00:34:50.108Z,101124.06
2022-11-29T00:38:07.138Z,101124.84
2022-11-29T00:41:24.625Z,101123.38
2022-11-29T00:45:04.343Z,101116.06
2022-11-29T00:48:30.907Z,101120.31
2022-11-29T00:52:11.262Z,101117.09
2022-11-29T00:55:37.547Z,101113.97
2022-11-29T00:59:32.069Z,101120.31
2022-11-29T01:03:02.099Z,101110.72
2022-11-29T01:06:42.388Z,101110.44
2022-11-29T01:10:12.091Z,101112.00
2022-11-29T01:13:49.056Z,101109.78
2022-11-29T01:17:07.599Z,101106.81
2022-11-29T01:20:36.715Z,101111.06
2022-11-29T01:23:40.402Z,101108.25
2022-11-29T01:26:57.622Z,101109.91
2022-11-29T01:30:26.192Z,101107.63
2022-11-29T01:34:02.762Z,101099.81
2022-11-29T01:37:34.655Z,101104.19
2022-11-29T01:40:57.812Z,101100.28
2022-11-29T01:44:30.407Z,101101.25
2022-11-29T01:47:58.522Z,101109.06
2022-11-29T01:51:37.843Z,101099.94
2022-11-29T01:55:07.902Z,101104.22
2022-11-29T01:58:23.260Z,101101.87
2022-11-29T02:01:40.554Z,101100.09
2022-11-29T02:04:58.920Z,101104.84
2022-11-29T02:08:38.370Z,101102.56
2022-11-29T02:12:21.323Z,101105.69
2022-11-29T02:16:05.506Z,101099.66
2022-11-29T02:19:31.570Z,101107.34
2022-11-29T02:23:21.695Z,101115.94
2022-11-29T02:27:24.166Z,101110.72
2022-11-29T02:31:20.079Z,101121.50
2022-11-29T02:35:28.641Z,101131.44
2022-11-29T02:39:03.040Z,101128.00
2022-11-29T02:43:05.204Z,101134.19
2022-11-29T02:46:10.913Z,101126.53
2022-11-29T02:50:17.265Z,101122.78
2022-11-29T02:53:58.667Z,101125.75
2022-11-29T02:57:28.523Z,101133.22
2022-11-29T03:01:22.062Z,101125.41
2022-11-29T03:04:49.485Z,101128.37
2022-11-29T03:09:01.469Z,101127.69
2022-11-29T03:12:46.018Z,101123.78
2022-11-29T03:16:43.613Z,101118.09
2022-11-29T03:20:50.808Z,101127.22
2022-11-29T03:24:25.206Z,101125.91
2022-11-29T03:28:12.257Z,101129.81
2022-11-29T03:32:02.949Z,101114.06
2022-11-29T03:35:47.707Z,101128.03
2022-11-29T03:39:07.985Z,101126.88
2022-11-29T03:42:33.487Z,101121.53
2022-11-29T03:46:03.353Z,101127.41
2022-11-29T03:49:32.258Z,101139.75
2022-11-29T03:52:57.356Z,101137.66
2022-11-29T03:56:28.008Z,101137.66
2022-11-29T04:00:13.663Z,101143.47
2022-11-29T04:04:18.319Z,101150.00
2022-11-29T04:08:02.140Z,101147.06
2022-11-29T04:11:59.222Z,101153.75
2022-11-29T04:15:46.920Z,101149.66
2022-11-29T04:20:07.421Z,101150.47
2022-11-29T04:23:31.376Z,101162.87
2022-11-29T04:27:09.527Z,101160.25
2022-11-29T04:30:58.814Z,101168.09
2022-11-29T04:34:28.641Z,101162.84
2022-11-29T04:38:13.235Z,101160.25
2022-11-29T04:41:43.640Z,101169.84
2022-11-29T04:45:39.243Z,101165.13
2022-11-29T04:49:22.345Z,101168.72
2022-11-29T04:53:20.767Z,101170.69
2022-11-29T04:57:05.241Z,101179.16
2022-11-29T05:00:24.714Z,101178.50
2022-11-29T05:04:27.439Z,101179.16
2022-11-29T05:08:27.312Z,101185.00
2022-11-29T05:11:47.577Z,101190.06
2022-11-29T05:15:28.002Z,101202.91
2022-11-29T05:18:58.184Z,101204.38
2022-11-29T05:22:28.478Z,101194.44
2022-11-29T05:25:58.724Z,101199.97
2022-11-29T05:30:15.105Z,101193.47
2022-11-29T05:33:38.526Z,101189.53
2022-11-29T05:37:37.303Z,101196.88
2022-11-29T05:41:08.287Z,101201.12
2022-11-29T05:44:36.912Z,101197.72
2022-11-29T05:48:19.502Z,101200.63
2022-11-29T05:52:14.466Z,101202.41
2022-11-29T05:55:45.270Z,101199.66
2022-11-29T05:59:23.555Z,101198.97
2022-11-29T06:02:28.855Z,101205.50
2022-11-29T06:06:10.342Z,101198.84
2022-11-29T06:13:53.213Z,101211.38
2022-11-29T06:17:49.179Z,101214.59
2022-11-29T06:22:03.305Z,101212.19
2022-11-29T06:26:13.510Z,101225.00
2022-11-29T06:29:52.155Z,101219.16
2022-11-29T06:33:30.465Z,101218.19
2022-11-29T06:37:51.007Z,101222.09
2022-11-29T06:41:18.242Z,101225.53
2022-11-29T06:44:52.644Z,101233.53
2022-11-29T06:49:02.329Z,101233.19
2022-11-29T06:52:59.536Z,101230.91
2022-11-29T06:56:30.510Z,101229.09
2022-11-29T07:00:31.457Z,101233.50
2022-11-29T07:04:11.204Z,101235.12
2022-11-29T07:07:50.690Z,101235.94
2022-11-29T07:11:25.137Z,101244.72
2022-11-29T07:15:14.305Z,101246.22
2022-11-29T07:23:32.831Z,101242.28
2022-11-29T07:28:10.416Z,101245.88
2022-11-29T07:31:33.688Z,101248.81
2022-11-29T07:35:25.971Z,101244.25
2022-11-29T07:39:11.165Z,101241.94
2022-11-29T07:43:23.236Z,101248.78
2022-11-29T07:46:30.627Z,101245.50
2022-11-29T07:50:15.351Z,101249.63
2022-11-29T07:53:56.446Z,101254.69
2022-11-29T07:57:53.578Z,101249.47
2022-11-29T08:01:12.984Z,101250.72
2022-11-29T08:04:47.487Z,101250.41
2022-11-29T08:08:13.736Z,101257.53
2022-11-29T08:15:32.476Z,101250.25
2022-11-29T08:23:51.942Z,101251.38
2022-11-29T08:27:28.236Z,101263.13
2022-11-29T08:39:21.204Z,101256.41
2022-11-29T08:43:01.410Z,101245.78
2022-11-29T08:46:59.198Z,101252.34
2022-11-29T08:58:22.340Z,101244.53
2022-11-29T09:01:47.302Z,101247.22
2022-11-29T09:05:15.258Z,101242.78
2022-11-29T09:08:47.063Z,101248.31
2022-11-29T09:12:09.487Z,101243.44
2022-11-29T09:15:29.507Z,101240.47
2022-11-29T09:19:08.603Z,101244.06
2022-11-29T09:22:46.534Z,101246.22
2022-11-29T09:26:10.906Z,101243.63
2022-11-29T09:29:24.186Z,101245.22
2022-11-29T09:32:56.251Z,101245.19
2022-11-29T09:36:28.859Z,101240.03
2022-11-29T09:40:08.168Z,101239.03
2022-11-29T09:44:02.504Z,101242.81
2022-11-29T09:48:11.168Z,101240.19
2022-11-29T09:52:36.307Z,101222.59
2022-11-29T09:56:26.758Z,101227.00
2022-11-29T09:59:49.909Z,101224.34
2022-11-29T10:03:23.772Z,101209.34
2022-11-29T10:07:32.621Z,101211.41
2022-11-29T10:11:09.570Z,101214.66
2022-11-29T10:14:44.869Z,101208.59
2022-11-29T10:18:21.186Z,101214.03
2022-11-29T10:22:20.682Z,101208.16
2022-11-29T10:26:00.508Z,101204.53
2022-11-29T10:29:28.030Z,101201.03
2022-11-29T10:32:52.124Z,101197.22
2022-11-29T10:40:37.044Z,101201.12
2022-11-29T10:43:52.929Z,101188.59
2022-11-29T10:47:25.114Z,101188.84
2022-11-29T10:50:43.698Z,101197.16
2022-11-29T10:54:56.522Z,101188.06
2022-11-29T10:58:44.854Z,101185.25
2022-11-29T11:02:22.373Z,101169.47
2022-11-29T11:05:42.131Z,101172.34
2022-11-29T11:09:35.526Z,101180.31
2022-11-29T11:13:23.018Z,101175.69
2022-11-29T11:17:14.375Z,101178.25
2022-11-29T11:21:00.254Z,101176.75
2022-11-29T11:24:42.614Z,101175.50
2022-11-29T11:28:29.041Z,101173.69
2022-11-29T11:32:00.687Z,101174.69
2022-11-29T11:35:37.292Z,101177.84
2022-11-29T11:39:23.775Z,101183.25
2022-11-29T11:43:22.154Z,101175.25
2022-11-29T11:46:51.839Z,101180.47
2022-11-29T11:50:45.444Z,101172.09
2022-11-29T11:54:18.417Z,101187.16
2022-11-29T11:57:26.223Z,101175.78
2022-11-29T12:01:13.375Z,101172.00
2022-11-29T12:04:37.374Z,101174.34
2022-11-29T12:08:20.246Z,101172.53
2022-11-29T12:12:06.642Z,101177.62
2022-11-29T12:15:45.034Z,101173.38
2022-11-29T12:19:26.043Z,101168.47
2022-11-29T12:23:11.398Z,101170.72
2022-11-29T12:26:58.511Z,101163.06
2022-11-29T12:30:19.262Z,101159.91
2022-11-29T12:34:22.619Z,101159.50
2022-11-29T12:38:40.670Z,101162.28
2022-11-29T12:42:29.909Z,101157.44
2022-11-29T12:46:11.745Z,101153.53
2022-11-29T12:49:55.519Z,101150.47
2022-11-29T12:53:56.380Z,101154.78
2022-11-29T12:57:49.259Z,101150.78
2022-11-29T13:01:51.481Z,101148.97
2022-11-29T13:05:20.542Z,101153.53
2022-11-29T13:09:30.169Z,101142.28
2022-11-29T13:12:55.221Z,101140.12
2022-11-29T13:16:43.352Z,101145.25
2022-11-29T13:21:15.488Z,101150.22
2022-11-29T13:25:13.177Z,101154.38
2022-11-29T13:28:48.278Z,101155.63
2022-11-29T13:32:33.288Z,101158.84
2022-11-29T13:36:22.098Z,101154.06
2022-11-29T13:40:03.202Z,101151.06
2022-11-29T13:43:47.850Z,101148.75
2022-11-29T13:47:24.891Z,101155.09
2022-11-29T13:50:56.471Z,101157.53
2022-11-29T13:54:32.812Z,101166.25
2022-11-29T13:58:18.309Z,101170.13
2022-11-29T14:01:47.361Z,101162.13
2022-11-29T14:05:09.860Z,101160.72
2022-11-29T14:12:41.339Z,101157.62
2022-11-29T14:16:07.225Z,101158.09
2022-11-29T14:19:32.813Z,101150.59
2022-11-29T14:23:06.497Z,101150.59
2022-11-29T14:26:41.116Z,101152.22
2022-11-29T14:29:58.737Z,101155.00
2022-11-29T14:33:24.244Z,101152.13
2022-11-29T14:36:41.071Z,101157.19
2022-11-29T14:40:29.143Z,101154.31
2022-11-29T14:44:22.028Z,101161.91
2022-11-29T14:47:52.292Z,101160.62
2022-11-29T14:51:14.735Z,101162.16
2022-11-29T14:54:56.632Z,101160.38
2022-11-29T14:58:22.810Z,101165.22
2022-11-29T15:01:56.144Z,101160.72
2022-11-29T15:05:38.791Z,101162.87
2022-11-29T15:09:17.354Z,101158.66
2022-11-29T15:12:36.821Z,101164.59
2022-11-29T15:16:34.359Z,101159.37
2022-11-29T15:20:00.439Z,101155.41
2022-11-29T15:23:42.722Z,101151.25
2022-11-29T15:27:13.488Z,101151.25
2022-11-29T15:30:49.023Z,101147.97
2022-11-29T15:34:28.368Z,101145.09
2022-11-29T15:37:49.741Z,101144.38
2022-11-29T15:41:27.478Z,101147.69
2022-11-29T15:45:00.531Z,101151.06
2022-11-29T15:48:30.465Z,101167.53
2022-11-29T15:52:18.526Z,101161.84
2022-11-29T15:55:32.107Z,101156.88
2022-11-29T15:59:36.708Z,101164.16
2022-11-29T16:03:07.340Z,101165.34
2022-11-29T16:06:44.901Z,101161.38
2022-11-29T16:10:35.372Z,101167.50
2022-11-29T16:14:25.308Z,101175.91
2022-11-29T16:17:42.174Z,101176.25
2022-11-29T16:21:23.273Z,101179.16
2022-11-29T16:25:04.393Z,101174.34
2022-11-29T16:28:47.898Z,101177.59
2022-11-29T16:32:21.503Z,101176.63
2022-11-29T16:35:51.844Z,101177.44
2022-11-29T16:39:25.200Z,101187.91
2022-11-29T16:42:46.508Z,101189.34
2022-11-29T16:46:27.654Z,101195.75
2022-11-29T16:50:22.732Z,101203.34
2022-11-29T16:53:44.464Z,101203.63
2022-11-29T16:57:15.599Z,101207.22
2022-11-29T17:00:47.665Z,101216.94
2022-11-29T17:04:02.507Z,101219.63
2022-11-29T17:07:41.491Z,101219.34
2022-11-29T17:11:11.859Z,101225.44
2022-11-29T17:14:26.997Z,101221.19
2022-11-29T17:18:01.709Z,101229.84
2022-11-29T17:21:32.768Z,101224.34
2022-11-29T17:24:56.979Z,101219.72
2022-11-29T17:28:31.343Z,101225.84
2022-11-29T17:31:50.564Z,101225.97
2022-11-29T17:35:10.220Z,101233.84
2022-11-29T17:38:36.987Z,101227.03
2022-11-29T17:42:04.090Z,101222.50
2022-11-29T17:45:18.356Z,101231.13
2022-11-29T17:48:49.839Z,101229.66
2022-11-29T17:52:20.020Z,101231.31
2022-11-29T17:55:37.133Z,101221.53
2022-11-29T17:58:56.010Z,101222.56
2022-11-29T18:02:13.455Z,101224.22
2022-11-29T18:05:34.778Z,101222.50
2022-11-29T18:09:05.905Z,101211.44
2022-11-29T18:12:20.600Z,101217.84
2022-11-29T18:15:45.584Z,101210.91
2022-11-29T18:19:20.405Z,101219.56
2022-11-29T18:22:39.676Z,101217.78
2022-11-29T18:26:20.344Z,101225.09
2022-11-29T18:29:39.290Z,101237.34
2022-11-29T18:33:05.811Z,101243.87
2022-11-29T18:36:46.851Z,101239.94
2022-11-29T18:40:03.792Z,101240.34
2022-11-29T18:43:33.018Z,101240.22
2022-11-29T18:46:51.218Z,101238.47
2022-11-29T18:50:09.335Z,101233.25
2022-11-29T18:53:26.300Z,101231.00
2022-11-29T18:56:45.742Z,101236.53
2022-11-29T19:00:17.463Z,101232.09
2022-11-29T19:03:35.460Z,101215.59
2022-11-29T19:07:04.242Z,101223.72
2022-11-29T19:10:33.224Z,101224.34
2022-11-29T19:14:03.411Z,101229.56
2022-11-29T19:17:41.688Z,101222.91
2022-11-29T19:21:18.982Z,101226.16
2022-11-29T19:25:15.784Z,101235.91
2022-11-29T19:28:30.382Z,101229.84
2022-11-29T19:31:57.880Z,101231.31
2022-11-29T19:35:29.939Z,101236.34
2022-11-29T19:38:54.145Z,101231.84
2022-11-29T19:42:13.186Z,101235.19
2022-11-29T19:45:50.554Z,101238.28
2022-11-29T19:49:35.635Z,101236.34
2022-11-29T19:53:02.557Z,101232.19
2022-11-29T19:56:35.577Z,101226.44
2022-11-29T19:59:55.178Z,101230.13
2022-11-29T20:03:15.599Z,101230.56
2022-11-29T20:06:47.818Z,101236.34
2022-11-29T20:10:08.699Z,101225.34
2022-11-29T20:13:41.328Z,101221.56
2022-11-29T20:17:14.418Z,101225.69
2022-11-29T20:20:45.435Z,101215.25
2022-11-29T20:24:06.423Z,101220.09
2022-11-29T20:27:36.709Z,101219.19
2022-11-29T20:31:22.376Z,101216.06
2022-11-29T20:34:40.926Z,101215.59
2022-11-29T20:38:48.404Z,101222.19
2022-11-29T20:42:27.687Z,101221.13
2022-11-29T20:45:46.169Z,101217.69
2022-11-29T20:49:06.993Z,101217.56
2022-11-29T20:52:44.672Z,101222.09
2022-11-29T20:56:21.054Z,101221.00
2022-11-29T20:59:54.668Z,101213.53
2022-11-29T21:03:30.145Z,101207.13
2022-11-29T21:06:59.718Z,101213.63
2022-11-29T21:10:31.397Z,101213.56
2022-11-29T21:14:14.128Z,101216.87
2022-11-29T21:17:51.943Z,101217.56
2022-11-29T21:21:43.213Z,101214.44
2022-11-29T21:25:25.450Z,101214.53
2022-11-29T21:29:21.159Z,101220.47
2022-11-29T21:32:58.113Z,101223.25
2022-11-29T21:36:32.750Z,101220.31
2022-11-29T21:39:58.570Z,101224.06
2022-11-29T21:44:04.516Z,101219.50
2022-11-29T21:46:54.042Z,101222.28
2022-11-29T21:50:21.352Z,101221.13
2022-11-29T21:53:41.603Z,101224.19
2022-11-29T21:57:14.984Z,101227.94
2022-11-29T22:00:37.267Z,101229.78
2022-11-29T22:03:53.667Z,101232.66
2022-11-29T22:07:35.072Z,101231.75
2022-11-29T22:11:00.012Z,101226.87
2022-11-29T22:14:27.181Z,101211.53
2022-11-29T22:17:46.233Z,101212.25
2022-11-29T22:21:14.664Z,101208.75
2022-11-29T22:24:55.296Z,101212.13
2022-11-29T22:28:24.757Z,101202.91
2022-11-29T22:32:03.293Z,101207.56
2022-11-29T22:35:36.008Z,101203.06
2022-11-29T22:39:13.457Z,101208.09
2022-11-29T22:42:48.580Z,101208.84
2022-11-29T22:46:29.092Z,101210.16
2022-11-29T22:50:11.104Z,101213.00
2022-11-29T22:53:48.264Z,101200.19
2022-11-29T22:57:44.267Z,101207.81
2022-11-29T23:01:23.274Z,101197.72
2022-11-29T23:04:50.710Z,101199.00
2022-11-29T23:08:19.243Z,101191.81
2022-11-29T23:12:03.165Z,101188.53
2022-11-29T23:19:42.571Z,101190.34
2022-11-29T23:27:27.237Z,101186.56
2022-11-29T23:31:04.967Z,101188.72
2022-11-29T23:34:46.814Z,101180.19
2022-11-29T23:38:26.759Z,101183.97
2022-11-29T23:41:52.634Z,101187.59
2022-11-29T23:50:08.502Z,101186.13
2022-11-29T23:53:52.478Z,101185.78
2022-11-29T23:57:18.968Z,101188.72
